Time;durP1;ratioP1;P1;durP2;ratioP2;P2;SDS_P1;SDS_P2;PMS_P1;PMS_P2;Temp;Humidity;BMP_temperature;BMP_pressure;BME280_temperature;BME280_humidity;BME280_pressure;Samples;Min_cycle;Max_cycle;Signal;HPM_P1;HPM_P2
2022/06/27 00:02:08;;;;;;;;;6.75;3.25;;;;;20.03;45.08;101008.53;5013448;28;45421;-62
2022/06/27 00:04:33;;;;;;;;;5.00;5.00;;;;;19.97;45.69;101001.72;5022538;28;45564;-62
2022/06/27 00:06:59;;;;;;;;;4.00;3.00;;;;;19.95;45.57;101000.06;5022214;28;45421;-61
2022/06/27 00:09:24;;;;;;;;;4.25;3.75;;;;;19.92;45.48;101014.41;5022531;28;45313;-61
2022/06/27 00:11:49;;;;;;;;;6.50;5.50;;;;;19.89;45.52;101021.69;5022726;28;45330;-62
2022/06/27 00:14:15;;;;;;;;;5.00;4.00;;;;;19.86;45.39;101008.50;5009029;28;45635;-61
2022/06/27 00:16:40;;;;;;;;;6.00;4.00;;;;;19.87;45.45;101015.56;5022146;28;46149;-61
2022/06/27 00:19:05;;;;;;;;;4.75;3.75;;;;;19.84;45.69;101015.72;5022215;28;45315;-61
2022/06/27 00:21:31;;;;;;;;;3.25;3.25;;;;;19.80;45.53;101013.16;5022560;28;45319;-61
2022/06/27 00:23:56;;;;;;;;;5.00;5.00;;;;;19.76;45.78;101008.03;5022393;28;45318;-61
2022/06/27 00:26:21;;;;;;;;;7.00;4.00;;;;;19.77;45.82;101007.97;5022319;28;45320;-62
2022/06/27 00:28:47;;;;;;;;;5.25;4.25;;;;;19.75;45.71;101007.19;5022245;28;45336;-62
2022/06/27 00:31:12;;;;;;;;;3.50;3.00;;;;;19.73;45.94;101003.72;5022164;28;45671;-61
2022/06/27 00:33:38;;;;;;;;;5.50;4.25;;;;;19.70;45.66;101003.88;5022259;28;45250;-61
2022/06/27 00:36:03;;;;;;;;;4.00;4.00;;;;;19.64;45.59;100997.03;5022233;28;46064;-62
2022/06/27 00:38:29;;;;;;;;;3.00;3.00;;;;;19.64;45.55;101012.16;5022004;28;45304;-61
2022/06/27 00:40:54;;;;;;;;;3.25;3.25;;;;;19.59;45.89;101006.19;5022029;28;45248;-61
2022/06/27 00:43:19;;;;;;;;;6.25;4.00;;;;;19.58;45.97;100999.13;5022159;28;45327;-61
2022/06/27 00:45:45;;;;;;;;;3.50;2.00;;;;;19.57;45.74;101008.94;5020867;28;46283;-61
2022/06/27 00:48:10;;;;;;;;;3.00;2.00;;;;;19.53;45.85;101004.69;5022010;28;45170;-62
2022/06/27 00:50:36;;;;;;;;;3.25;3.25;;;;;19.52;46.13;101005.63;5022132;28;45408;-61
2022/06/27 00:53:02;;;;;;;;;4.00;3.75;;;;;19.51;45.96;101008.34;5021860;28;45232;-62
2022/06/27 00:55:28;;;;;;;;;3.00;3.00;;;;;19.49;45.72;101005.75;5022009;28;45326;-61
2022/06/27 00:57:53;;;;;;;;;4.00;3.00;;;;;19.47;45.93;100996.97;5021721;28;45628;-61
2022/06/27 01:00:19;;;;;;;;;5.25;4.25;;;;;19.44;45.98;100995.31;5021795;28;45323;-61
2022/06/27 01:02:45;;;;;;;;;3.00;3.00;;;;;19.45;45.91;100999.72;5021305;28;45319;-61
2022/06/27 01:05:12;;;;;;;;;5.00;3.25;;;;;19.45;45.83;101005.03;5021660;28;45273;-61
2022/06/27 01:07:37;;;;;;;;;2.75;2.00;;;;;19.46;45.94;100995.25;5021705;28;45372;-61
2022/06/27 01:10:03;;;;;;;;;4.50;3.75;;;;;19.45;46.12;101007.72;5021944;28;45433;-61
2022/06/27 01:12:29;;;;;;;;;3.50;3.50;;;;;19.43;45.90;101009.59;5019968;28;45227;-62
2022/06/27 01:14:54;;;;;;;;;4.00;3.75;;;;;19.43;45.75;101014.94;5009514;28;46164;-61
2022/06/27 01:17:20;;;;;;;;;2.75;2.25;;;;;19.44;46.24;101027.28;5021220;28;45238;-61
2022/06/27 01:19:45;;;;;;;;;4.75;4.00;;;;;19.41;45.97;101022.13;5021546;28;45469;-61
2022/06/27 01:22:11;;;;;;;;;4.50;4.50;;;;;19.43;46.03;101030.91;5021434;28;45402;-61
2022/06/27 01:24:37;;;;;;;;;3.00;2.25;;;;;19.45;45.78;101036.16;5021465;28;46009;-62
2022/06/27 01:27:04;;;;;;;;;4.25;3.00;;;;;19.45;46.06;101030.84;5021389;28;45268;-61
2022/06/27 01:29:29;;;;;;;;;3.25;3.00;;;;;19.43;46.02;101052.25;5021678;28;45393;-62
2022/06/27 01:31:54;;;;;;;;;3.50;2.25;;;;;19.43;45.95;101054.03;5020867;28;45256;-61
2022/06/27 01:34:20;;;;;;;;;4.00;3.00;;;;;19.38;45.92;101038.22;5021235;28;45380;-61
2022/06/27 01:36:46;;;;;;;;;2.00;2.00;;;;;19.38;46.14;101050.72;5021190;28;45314;-61
2022/06/27 01:39:24;;;;;;;;;5.75;4.75;;;;;19.37;46.39;101046.31;5021358;28;45547;-61
2022/06/27 01:41:52;;;;;;;;;3.00;3.00;;;;;19.27;45.97;101036.09;5020979;28;45182;-61
2022/06/27 01:44:20;;;;;;;;;2.75;2.75;;;;;19.33;46.25;101046.47;5021204;28;46091;-61
2022/06/27 01:46:54;;;;;;;;;2.50;2.25;;;;;19.32;46.10;101036.72;5020430;28;46078;-61
2022/06/27 01:49:19;;;;;;;;;2.75;1.00;;;;;19.34;45.75;101044.66;5021341;28;45385;-61
2022/06/27 01:51:49;;;;;;;;;2.50;2.50;;;;;19.34;46.48;101034.00;5020801;28;45482;-61
2022/06/27 01:54:16;;;;;;;;;3.00;3.00;;;;;19.36;46.37;101040.13;5020930;28;45909;-62
2022/06/27 01:56:44;;;;;;;;;2.50;2.50;;;;;19.38;45.96;101021.41;5020527;28;45455;-61
2022/06/27 01:59:11;;;;;;;;;2.50;2.50;;;;;19.37;46.25;101030.31;5021123;28;45572;-62
2022/06/27 02:01:38;;;;;;;;;4.00;2.25;;;;;19.34;46.33;101018.00;5020238;28;45452;-62
2022/06/27 02:04:05;;;;;;;;;4.50;2.25;;;;;19.37;46.07;101025.00;5020059;28;45307;-61
2022/06/27 02:06:31;;;;;;;;;4.25;3.50;;;;;19.36;46.44;101015.25;5020758;28;45400;-62
2022/06/27 02:08:57;;;;;;;;;2.00;2.00;;;;;19.32;46.63;101012.75;5020767;28;45427;-61
2022/06/27 02:11:25;;;;;;;;;2.50;2.50;;;;;19.32;46.55;101022.56;5016386;28;45378;-62
2022/06/27 02:13:50;;;;;;;;;2.75;2.00;;;;;19.33;46.23;101013.59;5002548;28;46257;-61
2022/06/27 02:16:18;;;;;;;;;2.00;2.00;;;;;19.30;46.42;101011.94;5019419;28;45329;-61
2022/06/27 02:18:46;;;;;;;;;4.25;2.75;;;;;19.31;46.59;101004.84;5020879;28;45398;-62
2022/06/27 02:21:15;;;;;;;;;3.00;3.00;;;;;19.34;46.48;101004.69;5018000;28;45328;-61
2022/06/27 02:23:41;;;;;;;;;5.75;4.00;;;;;19.37;46.48;101017.88;5019089;28;48130;-61
2022/06/27 02:26:08;;;;;;;;;3.50;3.50;;;;;19.39;46.90;101023.13;5020302;28;45348;-61
2022/06/27 02:28:34;;;;;;;;;2.25;2.25;;;;;19.40;46.53;101033.72;5019271;28;45198;-61
2022/06/27 02:31:01;;;;;;;;;4.50;3.00;;;;;19.40;46.48;101027.53;5020038;28;45304;-61
2022/06/27 02:33:47;;;;;;;;;4.75;3.25;;;;;19.42;46.44;101028.31;5020260;28;45482;-61
2022/06/27 02:36:16;;;;;;;;;5.00;3.00;;;;;19.42;46.49;101025.63;5035570;28;45194;-61
2022/06/27 02:38:43;;;;;;;;;4.75;4.00;;;;;19.37;46.75;101023.22;5020152;28;45450;-61
2022/06/27 02:41:17;;;;;;;;;1.50;1.25;;;;;19.44;46.73;101037.94;5020166;28;45186;-61
2022/06/27 02:43:46;;;;;;;;;3.50;3.50;;;;;19.46;46.38;101045.91;5019968;28;47378;-62
2022/06/27 02:46:12;;;;;;;;;3.25;3.25;;;;;19.44;46.89;101034.44;5019872;28;45307;-62
2022/06/27 02:48:39;;;;;;;;;5.75;3.00;;;;;19.44;46.11;101027.28;5020293;28;45245;-62
2022/06/27 02:51:13;;;;;;;;;6.00;4.75;;;;;19.45;46.44;101029.03;5020176;28;45372;-62
2022/06/27 02:53:54;;;;;;;;;3.50;3.00;;;;;19.43;46.91;101041.56;5020090;28;45398;-62
2022/06/27 02:56:25;;;;;;;;;4.00;3.00;;;;;19.44;46.42;101045.09;5019948;28;45298;-62
2022/06/27 02:59:08;;;;;;;;;3.00;3.00;;;;;19.45;46.40;101033.50;5020266;28;45314;-62
2022/06/27 03:01:38;;;;;;;;;3.75;3.50;;;;;19.44;46.82;101029.97;5005835;28;45337;-62
2022/06/27 03:04:03;;;;;;;;;2.75;2.00;;;;;19.45;46.63;101033.50;5019420;28;45282;-62
2022/06/27 03:06:29;;;;;;;;;2.00;2.00;;;;;19.45;46.65;101025.50;5019731;28;45300;-62
2022/06/27 03:08:54;;;;;;;;;6.25;4.25;;;;;19.45;46.55;101029.03;5019413;28;45324;-62
2022/06/27 03:11:22;;;;;;;;;5.00;4.00;;;;;19.46;46.45;101029.91;5018145;28;45319;-62
2022/06/27 03:13:47;;;;;;;;;4.75;4.75;;;;;19.45;46.29;101021.03;5007407;28;46700;-62
2022/06/27 03:16:14;;;;;;;;;4.50;3.25;;;;;19.45;46.47;101015.69;5018095;28;45257;-62
2022/06/27 03:18:40;;;;;;;;;4.00;4.00;;;;;19.47;46.45;101007.63;5020015;28;45342;-62
2022/06/27 03:21:06;;;;;;;;;2.75;2.75;;;;;19.47;46.87;101011.19;5019291;28;45367;-62
2022/06/27 03:23:31;;;;;;;;;0.50;0.50;;;;;19.49;46.75;101011.09;5019591;28;46269;-62
2022/06/27 03:25:57;;;;;;;;;3.25;3.25;;;;;19.46;46.18;101011.25;5019571;28;45358;-62
2022/06/27 03:28:23;;;;;;;;;3.25;3.25;;;;;19.49;46.38;101009.28;5019911;28;45323;-62
2022/06/27 03:30:48;;;;;;;;;3.75;3.25;;;;;19.51;46.57;101009.22;5019043;28;45990;-62
2022/06/27 03:33:14;;;;;;;;;4.00;3.75;;;;;19.52;46.56;101004.75;5019456;28;46110;-62
2022/06/27 03:35:41;;;;;;;;;3.00;3.00;;;;;19.52;46.83;101002.09;5034734;28;45161;-61
2022/06/27 03:38:06;;;;;;;;;4.00;4.00;;;;;19.52;47.05;100997.66;5017755;28;45335;-57
2022/06/27 03:40:31;;;;;;;;;3.25;3.00;;;;;19.52;46.89;101005.63;5018614;28;45228;-57
2022/06/27 03:42:57;;;;;;;;;4.75;4.75;;;;;19.54;46.91;101018.88;5019387;28;45174;-57
2022/06/27 03:45:22;;;;;;;;;5.75;4.00;;;;;19.53;46.56;101022.47;5019175;28;45247;-57
2022/06/27 03:47:59;;;;;;;;;7.00;4.75;;;;;19.52;46.75;101012.75;5019413;28;45304;-57
2022/06/27 03:50:26;;;;;;;;;3.00;3.00;;;;;19.49;46.75;101014.63;5019345;28;45342;-57
2022/06/27 03:52:53;;;;;;;;;3.00;3.00;;;;;19.52;46.91;101026.06;5017594;28;48537;-58
2022/06/27 03:55:18;;;;;;;;;5.00;3.00;;;;;19.48;46.62;101020.91;5019185;28;45295;-57
2022/06/27 03:57:49;;;;;;;;;3.00;3.00;;;;;19.50;46.86;101018.16;5019105;28;45188;-58
2022/06/27 04:00:16;;;;;;;;;3.50;3.50;;;;;19.49;46.86;101017.28;5019145;28;45644;-58
2022/06/27 04:02:42;;;;;;;;;4.50;4.50;;;;;19.49;46.95;101013.75;5018564;28;46628;-57
2022/06/27 04:05:08;;;;;;;;;4.75;4.25;;;;;19.49;46.66;101019.94;5019147;28;45308;-57
2022/06/27 04:07:33;;;;;;;;;7.50;4.00;;;;;19.48;46.87;101014.69;5019172;28;45339;-57
2022/06/27 04:09:59;;;;;;;;;4.00;3.00;;;;;19.44;47.15;101015.78;5019109;28;45242;-57
2022/06/27 04:12:24;;;;;;;;;3.25;3.00;;;;;19.43;47.08;101041.56;5011092;28;46326;-58
2022/06/27 04:14:51;;;;;;;;;4.25;3.50;;;;;19.41;46.91;101030.13;5006748;28;45248;-58
2022/06/27 04:17:16;;;;;;;;;4.00;4.00;;;;;19.39;47.15;101023.97;5018032;28;45432;-57
2022/06/27 04:19:42;;;;;;;;;5.75;3.00;;;;;19.36;47.34;101026.81;5016799;28;46255;-58
2022/06/27 04:22:10;;;;;;;;;4.00;3.00;;;;;19.36;47.02;101039.25;5020087;28;45923;-57
2022/06/27 04:24:37;;;;;;;;;6.00;3.25;;;;;19.34;47.09;101057.97;5021343;28;45402;-57
2022/06/27 04:27:03;;;;;;;;;5.25;4.00;;;;;19.34;47.58;101060.63;5022489;28;45327;-57
2022/06/27 04:29:30;;;;;;;;;4.00;4.00;;;;;19.33;47.14;101069.56;5022418;28;45515;-57
2022/06/27 04:31:55;;;;;;;;;5.00;5.00;;;;;19.30;47.81;101065.22;5021740;28;45606;-57
2022/06/27 04:34:21;;;;;;;;;3.50;3.50;;;;;19.27;47.73;101077.81;5022193;28;45210;-58
2022/06/27 04:36:46;;;;;;;;;5.25;4.50;;;;;19.25;47.48;101082.38;5022263;28;45468;-58
2022/06/27 04:39:17;;;;;;;;;5.00;5.00;;;;;19.23;47.63;101102.88;5022103;28;45717;-57
2022/06/27 04:41:45;;;;;;;;;5.00;4.00;;;;;19.22;47.39;101106.47;5022037;28;45431;-57
2022/06/27 04:44:11;;;;;;;;;6.75;4.50;;;;;19.19;47.83;101103.97;5022434;28;45356;-57
2022/06/27 04:46:41;;;;;;;;;6.00;4.00;;;;;19.19;47.72;101099.50;5021652;28;45232;-57
2022/06/27 04:49:07;;;;;;;;;5.00;5.00;;;;;19.16;47.99;101089.84;5022031;28;45399;-57
2022/06/27 04:51:33;;;;;;;;;4.00;3.00;;;;;19.17;47.80;101072.06;5021685;28;46183;-57
2022/06/27 04:53:58;;;;;;;;;6.25;5.00;;;;;19.17;47.94;101070.25;5022007;28;45176;-56
2022/06/27 04:56:25;;;;;;;;;5.00;4.25;;;;;19.15;48.34;101077.44;5021961;28;45278;-57
2022/06/27 04:58:50;;;;;;;;;7.25;5.00;;;;;19.13;47.90;101079.34;5022175;28;45180;-57
2022/06/27 05:01:15;;;;;;;;;6.50;5.00;;;;;19.12;47.86;101074.94;5021131;28;46203;-57
2022/06/27 05:03:41;;;;;;;;;7.25;6.00;;;;;19.14;48.04;101056.22;5021723;28;45474;-57
2022/06/27 05:06:06;;;;;;;;;6.00;4.50;;;;;19.13;48.23;101047.38;5021888;28;45236;-57
2022/06/27 05:08:32;;;;;;;;;5.00;4.50;;;;;19.12;48.09;101039.47;5021856;28;45233;-56
2022/06/27 05:10:58;;;;;;;;;5.50;4.50;;;;;19.14;48.27;101035.78;5021343;28;46925;-58
2022/06/27 05:13:24;;;;;;;;;5.25;4.00;;;;;19.12;48.62;101050.13;5011577;28;45468;-56
2022/06/27 05:15:49;;;;;;;;;4.75;4.00;;;;;19.11;48.25;101067.03;5016929;28;46601;-56
2022/06/27 05:18:15;;;;;;;;;5.25;5.25;;;;;19.13;48.58;101063.34;5019396;28;45410;-57
2022/06/27 05:20:42;;;;;;;;;5.75;5.00;;;;;19.13;48.29;101060.69;5020529;28;45351;-57
2022/06/27 05:23:07;;;;;;;;;6.00;5.00;;;;;19.13;48.54;101059.81;5020167;28;45461;-65
2022/06/27 05:25:33;;;;;;;;;4.25;3.50;;;;;19.10;48.79;101059.97;5020678;28;45367;-65
2022/06/27 05:27:59;;;;;;;;;10.25;9.50;;;;;19.09;48.53;101061.75;5021779;28;45368;-66
2022/06/27 05:30:24;;;;;;;;;3.00;3.00;;;;;19.07;48.79;101062.75;5035979;28;47027;-66
2022/06/27 05:32:50;;;;;;;;;5.00;5.00;;;;;19.06;48.79;101072.53;5021196;28;45214;-66
2022/06/27 05:35:15;;;;;;;;;5.00;4.00;;;;;19.08;48.82;101077.78;5021359;28;45202;-73
2022/06/27 05:37:43;;;;;;;;;5.50;4.50;;;;;19.07;48.49;101063.63;5021516;28;45164;-64
2022/06/27 05:40:09;;;;;;;;;5.25;5.25;;;;;19.09;49.02;101058.22;5020988;28;45461;-58
2022/06/27 05:42:35;;;;;;;;;4.75;3.25;;;;;19.08;48.70;101077.78;5021061;28;45499;-64
2022/06/27 05:45:01;;;;;;;;;5.00;5.00;;;;;19.07;48.59;101092.03;5021158;28;45296;-63
2022/06/27 05:47:27;;;;;;;;;3.00;3.00;;;;;19.07;48.96;101084.06;5021169;28;45521;-62
2022/06/27 05:49:54;;;;;;;;;5.00;4.75;;;;;19.06;48.86;101083.19;5020864;28;45976;-63
2022/06/27 05:52:20;;;;;;;;;6.75;4.25;;;;;19.05;49.08;101084.13;5021036;28;45242;-63
2022/06/27 05:54:45;;;;;;;;;7.75;4.00;;;;;18.99;49.28;101092.38;5020889;28;45264;-62
2022/06/27 05:57:11;;;;;;;;;4.75;3.25;;;;;18.98;49.20;101109.28;5021132;28;45506;-62
2022/06/27 05:59:37;;;;;;;;;7.75;4.25;;;;;18.95;49.24;101115.63;5020738;28;46150;-62
2022/06/27 06:02:03;;;;;;;;;7.50;5.75;;;;;18.96;49.32;101121.81;5020244;28;45173;-62
2022/06/27 06:04:29;;;;;;;;;7.75;5.25;;;;;18.96;48.99;101116.50;5020734;28;45323;-62
2022/06/27 06:06:55;;;;;;;;;2.25;2.25;;;;;18.94;49.46;101127.22;5020856;28;45532;-61
2022/06/27 06:09:20;;;;;;;;;6.50;6.00;;;;;18.94;48.95;101121.91;5035578;28;45488;-62
2022/06/27 06:11:48;;;;;;;;;4.50;3.75;;;;;18.94;49.12;101129.00;5020688;28;45327;-62
2022/06/27 06:14:16;;;;;;;;;4.00;4.00;;;;;18.93;48.81;101127.25;5007251;28;45247;-61
2022/06/27 06:16:42;;;;;;;;;4.00;4.00;;;;;18.94;49.02;101115.69;5020323;28;45184;-62
2022/06/27 06:19:08;;;;;;;;;5.00;5.00;;;;;18.92;49.25;101106.91;5018571;28;45493;-62
2022/06/27 06:21:33;;;;;;;;;6.50;5.00;;;;;18.95;48.91;101093.47;5018406;28;45649;-60
2022/06/27 06:23:59;;;;;;;;;5.75;2.75;;;;;18.96;49.27;101092.53;5020374;28;45531;-60
2022/06/27 06:26:25;;;;;;;;;5.00;4.00;;;;;18.97;48.98;101112.91;5020227;28;45316;-65
2022/06/27 06:28:51;;;;;;;;;4.50;4.50;;;;;18.95;49.23;101118.28;5019919;28;46996;-60
2022/06/27 06:31:22;;;;;;;;;2.75;2.75;;;;;18.97;49.45;101155.50;5018882;28;45435;-60
2022/06/27 06:33:55;;;;;;;;;5.25;4.25;;;;;18.99;49.11;101133.22;5020067;28;45308;-61
2022/06/27 06:36:21;;;;;;;;;3.75;3.00;;;;;19.00;48.96;101131.41;5020351;28;45406;-59
2022/06/27 06:38:49;;;;;;;;;6.00;4.50;;;;;18.98;48.68;101127.94;5018809;28;46761;-61
2022/06/27 06:41:14;;;;;;;;;2.25;2.25;;;;;18.94;49.13;101127.22;5020133;28;45255;-58
2022/06/27 06:43:41;;;;;;;;;4.75;4.25;;;;;18.96;48.98;101129.81;5018447;28;45355;-58
2022/06/27 06:46:07;;;;;;;;;3.25;3.25;;;;;18.95;49.49;101136.91;5019364;28;45474;-58
2022/06/27 06:48:33;;;;;;;;;4.25;3.00;;;;;18.95;49.52;101131.59;5020044;28;45939;-59
2022/06/27 06:50:58;;;;;;;;;9.50;6.75;;;;;18.96;49.57;101140.47;5020054;28;45486;-59
2022/06/27 06:53:24;;;;;;;;;4.50;3.25;;;;;19.00;49.09;101142.06;5020252;28;45285;-59
2022/06/27 06:55:50;;;;;;;;;6.00;3.25;;;;;18.98;48.84;101154.56;5018777;28;45465;-59
2022/06/27 06:58:17;;;;;;;;;3.25;3.25;;;;;18.99;49.04;101158.97;5018394;28;45350;-59
2022/06/27 07:00:43;;;;;;;;;1.75;1.75;;;;;19.00;49.12;101153.59;5019605;28;45214;-59
2022/06/27 07:03:09;;;;;;;;;2.25;2.25;;;;;18.95;49.13;101176.00;5018947;28;45798;-59
2022/06/27 07:05:35;;;;;;;;;5.75;4.00;;;;;18.97;49.10;101179.47;5018826;28;45493;-59
2022/06/27 07:08:01;;;;;;;;;5.50;3.00;;;;;18.97;49.05;101187.47;5019842;28;46237;-59
2022/06/27 07:10:28;;;;;;;;;4.25;4.25;;;;;18.98;48.97;101191.84;5019878;28;45482;-61
2022/06/27 07:12:53;;;;;;;;;3.25;3.25;;;;;19.00;49.11;101198.88;5009775;28;45221;-59
2022/06/27 07:15:19;;;;;;;;;3.50;3.50;;;;;19.05;49.18;101198.66;5019876;28;45221;-59
2022/06/27 07:17:48;;;;;;;;;5.25;4.00;;;;;19.04;49.43;101206.72;5019472;28;45599;-59
2022/06/27 07:20:18;;;;;;;;;4.75;4.00;;;;;19.06;49.32;101208.38;5019745;28;45324;-59
2022/06/27 07:22:44;;;;;;;;;3.25;3.25;;;;;19.05;49.29;101211.09;5019650;28;45402;-59
2022/06/27 07:25:09;;;;;;;;;4.75;4.75;;;;;19.12;49.27;101216.09;5019717;28;45261;-59
2022/06/27 07:27:35;;;;;;;;;3.25;3.00;;;;;19.14;49.40;101208.94;5019765;28;46574;-59
2022/06/27 07:30:03;;;;;;;;;6.25;4.25;;;;;19.15;49.19;101215.97;5019473;28;45247;-59
2022/06/27 07:32:29;;;;;;;;;8.25;4.50;;;;;19.14;49.27;101222.25;5019507;28;45481;-59
2022/06/27 07:34:57;;;;;;;;;6.50;5.50;;;;;19.21;49.46;101219.31;5019661;28;45476;-59
2022/06/27 07:37:22;;;;;;;;;3.75;2.00;;;;;19.21;49.38;101216.66;5034831;28;47220;-59
2022/06/27 07:39:49;;;;;;;;;4.25;4.00;;;;;19.24;49.35;101219.19;5019554;28;45279;-59
2022/06/27 07:42:14;;;;;;;;;2.00;2.00;;;;;19.29;49.41;101206.53;5019705;28;45465;-59
2022/06/27 07:44:41;;;;;;;;;3.75;3.75;;;;;19.34;49.25;101215.19;5017853;28;45245;-59
2022/06/27 07:47:07;;;;;;;;;6.00;3.25;;;;;19.37;49.15;101209.72;5018607;28;45327;-59
2022/06/27 07:49:32;;;;;;;;;6.75;5.00;;;;;19.43;49.49;101206.78;5035043;28;45259;-59
2022/06/27 07:51:58;;;;;;;;;4.00;2.50;;;;;19.46;48.83;101203.97;5034907;28;45449;-59
2022/06/27 07:54:24;;;;;;;;;3.00;3.00;;;;;19.49;49.24;101203.84;5020603;28;45558;-59
2022/06/27 07:56:51;;;;;;;;;3.25;3.25;;;;;19.60;48.82;101213.19;5038115;28;46292;-59
2022/06/27 07:59:17;;;;;;;;;3.75;3.00;;;;;19.62;48.87;101208.63;5022895;28;45329;-59
2022/06/27 08:01:43;;;;;;;;;6.50;4.75;;;;;19.71;48.96;101220.66;5037805;28;45347;-59
2022/06/27 08:04:11;;;;;;;;;2.50;2.50;;;;;19.75;48.57;101219.63;5022436;28;45371;-59
2022/06/27 08:06:36;;;;;;;;;2.25;2.25;;;;;19.82;48.69;101218.38;5022631;28;47159;-60
2022/06/27 08:09:04;;;;;;;;;4.25;4.00;;;;;19.89;48.07;101216.38;5022720;28;45234;-59
2022/06/27 08:11:38;;;;;;;;;4.75;4.75;;;;;19.97;48.23;101219.53;5021554;28;45322;-59
2022/06/27 08:14:06;;;;;;;;;2.75;2.75;;;;;20.04;48.47;101212.97;5022485;28;45448;-59
2022/06/27 08:16:32;;;;;;;;;4.50;3.00;;;;;20.13;47.90;101223.19;5022243;28;47044;-59
2022/06/27 08:18:59;;;;;;;;;3.00;3.00;;;;;20.21;47.67;101222.00;5022402;28;45357;-59
2022/06/27 08:21:27;;;;;;;;;3.75;3.75;;;;;20.27;47.58;101222.56;5022693;28;45248;-59
2022/06/27 08:23:58;;;;;;;;;5.00;4.00;;;;;20.34;47.78;101224.94;5022348;28;45245;-59
2022/06/27 08:26:24;;;;;;;;;4.50;3.50;;;;;20.42;47.85;101228.97;5022227;28;45251;-59
2022/06/27 08:28:50;;;;;;;;;3.00;3.00;;;;;20.49;47.40;101239.34;5022249;28;45243;-59
2022/06/27 08:31:17;;;;;;;;;4.00;4.00;;;;;20.54;47.24;101235.53;5022184;28;45224;-59
2022/06/27 08:33:45;;;;;;;;;4.25;3.25;;;;;20.61;46.82;101249.44;5021752;28;45197;-59
2022/06/27 08:36:13;;;;;;;;;3.00;3.00;;;;;20.68;46.76;101255.34;5022170;28;46389;-60
2022/06/27 08:38:42;;;;;;;;;1.75;1.75;;;;;20.75;46.67;101259.47;5022180;28;45214;-59
2022/06/27 08:41:10;;;;;;;;;3.25;3.25;;;;;20.78;46.91;101265.53;5037591;28;45427;-60
2022/06/27 08:43:35;;;;;;;;;2.75;1.75;;;;;20.83;46.76;101264.44;5022035;28;45386;-60
2022/06/27 08:46:01;;;;;;;;;1.00;1.00;;;;;20.88;46.32;101265.97;5021825;28;45539;-59
2022/06/27 08:48:29;;;;;;;;;0.75;0.75;;;;;20.90;46.31;101263.22;5022087;28;45323;-59
2022/06/27 08:50:57;;;;;;;;;2.25;2.25;;;;;20.96;46.63;101278.09;5022132;28;45464;-59
2022/06/27 08:53:25;;;;;;;;;4.00;3.00;;;;;20.97;46.07;101279.78;5021911;28;45477;-59
2022/06/27 08:55:50;;;;;;;;;3.75;2.50;;;;;21.00;45.71;101274.31;5021899;28;47208;-60
2022/06/27 08:58:16;;;;;;;;;2.00;2.00;;;;;21.02;45.67;101277.75;5021947;28;45319;-60
2022/06/27 09:00:46;;;;;;;;;3.25;2.00;;;;;21.05;45.66;101277.63;5021561;28;45527;-59
2022/06/27 09:03:13;;;;;;;;;4.25;2.00;;;;;21.02;45.65;101280.41;5021685;28;45587;-59
2022/06/27 09:05:38;;;;;;;;;2.00;1.50;;;;;21.02;45.30;101275.97;5035609;28;45340;-60
2022/06/27 09:08:06;;;;;;;;;2.75;2.00;;;;;21.01;45.55;101276.91;5021609;28;45312;-59
2022/06/27 09:10:43;;;;;;;;;3.00;2.50;;;;;21.00;45.26;101258.28;5021833;28;45313;-59
2022/06/27 09:13:12;;;;;;;;;2.00;2.00;;;;;20.95;45.20;101255.84;5009795;28;45458;-59
2022/06/27 09:15:37;;;;;;;;;6.00;2.00;;;;;20.98;45.41;101255.69;5021253;28;45486;-59
2022/06/27 09:18:06;;;;;;;;;3.50;2.00;;;;;20.94;45.31;101254.97;5021521;28;45244;-59
2022/06/27 09:20:59;;;;;;;;;2.25;2.25;;;;;21.01;45.00;101244.00;5020293;28;45433;-60
2022/06/27 09:23:49;;;;;;;;;2.25;2.25;;;;;21.02;44.83;101251.03;5016905;28;45377;-60
2022/06/27 09:26:19;;;;;;;;;2.25;2.25;;;;;21.03;45.20;101259.00;5021486;28;46183;-59
2022/06/27 09:28:44;;;;;;;;;1.75;1.75;;;;;21.05;45.00;101257.09;5021030;28;45335;-59
2022/06/27 09:31:26;;;;;;;;;1.00;1.00;;;;;21.04;44.96;101258.06;5021210;28;45253;-59
2022/06/27 09:34:04;;;;;;;;;1.50;1.00;;;;;21.05;44.42;101253.56;5036704;28;45408;-59
2022/06/27 09:36:32;;;;;;;;;0.00;0.00;;;;;21.04;44.20;101263.41;5036651;28;48351;-59
2022/06/27 09:38:59;;;;;;;;;2.00;1.00;;;;;21.02;43.95;101264.41;5021182;28;45461;-59
2022/06/27 09:41:26;;;;;;;;;2.00;2.00;;;;;21.01;43.75;101258.19;5021307;28;45287;-59
2022/06/27 09:43:52;;;;;;;;;2.00;1.00;;;;;20.99;43.96;101256.53;5021182;28;45361;-59
2022/06/27 09:46:19;;;;;;;;;1.50;1.50;;;;;21.00;44.27;101256.47;5020610;28;46130;-59
2022/06/27 09:48:46;;;;;;;;;2.00;2.00;;;;;21.01;44.10;101255.53;5021360;28;45387;-59
2022/06/27 09:51:15;;;;;;;;;5.25;3.00;;;;;21.07;44.41;101257.91;5021058;28;45331;-59
2022/06/27 09:53:47;;;;;;;;;0.75;0.75;;;;;21.12;44.41;101249.66;5021031;28;45240;-59
2022/06/27 09:56:14;;;;;;;;;2.00;2.00;;;;;21.17;44.06;101258.31;5020752;28;45615;-58
2022/06/27 09:58:41;;;;;;;;;3.25;1.00;;;;;21.22;43.98;101256.25;5021247;28;45308;-58
2022/06/27 10:01:08;;;;;;;;;4.50;2.00;;;;;21.27;43.84;101266.72;5020541;28;45311;-58
2022/06/27 10:03:36;;;;;;;;;1.00;1.00;;;;;21.29;43.66;101251.44;5020736;28;45438;-58
2022/06/27 10:06:03;;;;;;;;;6.00;4.25;;;;;21.37;43.98;101254.59;5020507;28;46638;-58
2022/06/27 10:08:31;;;;;;;;;1.00;1.00;;;;;21.41;43.68;101248.16;5020787;28;45172;-58
2022/06/27 10:11:08;;;;;;;;;3.00;3.00;;;;;21.51;43.77;101258.34;5019944;28;45220;-58
2022/06/27 10:13:35;;;;;;;;;1.75;1.00;;;;;21.49;42.87;101254.91;5010875;28;45376;-58
2022/06/27 10:16:10;;;;;;;;;2.75;1.00;;;;;21.51;42.27;101255.69;5019987;28;47070;-58
2022/06/27 10:19:14;;;;;;;;;1.75;1.75;;;;;21.54;42.48;101256.38;5019383;28;45315;-58
2022/06/27 10:21:46;;;;;;;;;0.75;0.75;;;;;21.57;42.22;101256.28;4979261;28;45344;-58
2022/06/27 10:24:24;;;;;;;;;0.75;0.75;;;;;21.65;41.82;101258.53;4978799;28;45463;-58
2022/06/27 10:26:52;;;;;;;;;2.50;2.00;;;;;21.68;41.85;101254.84;5003348;28;45442;-58
2022/06/27 10:29:27;;;;;;;;;3.00;1.00;;;;;21.79;41.76;101252.47;5018522;28;45340;-58
2022/06/27 10:31:53;;;;;;;;;1.00;1.00;;;;;21.86;41.68;101255.66;5020168;28;45268;-58
2022/06/27 10:34:38;;;;;;;;;3.25;1.75;;;;;21.86;40.83;101256.53;5020370;28;45333;-58
2022/06/27 10:37:25;;;;;;;;;1.50;1.50;;;;;21.99;41.09;101262.09;5020379;28;46413;-58
2022/06/27 10:39:54;;;;;;;;;2.00;1.00;;;;;22.08;40.50;101266.09;5020268;28;45272;-58
2022/06/27 10:42:54;;;;;;;;;1.00;1.00;;;;;22.13;40.58;101274.72;5020347;28;45349;-58
2022/06/27 10:45:20;;;;;;;;;1.75;1.00;;;;;22.26;40.12;101279.41;5019972;28;45216;-58
2022/06/27 10:47:49;;;;;;;;;0.00;0.00;;;;;22.29;40.27;101277.44;5020172;28;45350;-58
2022/06/27 10:50:16;;;;;;;;;0.25;0.25;;;;;22.46;39.86;101259.59;5020167;28;45327;-57
2022/06/27 10:52:42;;;;;;;;;0.75;0.75;;;;;22.66;40.22;101278.06;5020209;28;45318;-57
2022/06/27 10:55:31;;;;;;;;;1.75;1.75;;;;;22.97;40.75;101275.47;5020047;28;45554;-58
2022/06/27 10:57:58;;;;;;;;;2.00;0.25;;;;;23.15;40.79;101278.88;5020008;28;45404;-58
2022/06/27 11:00:36;;;;;;;;;1.00;1.00;;;;;23.45;40.66;101278.91;5019815;28;45316;-58
2022/06/27 11:03:02;;;;;;;;;1.25;1.25;;;;;23.66;40.35;101273.16;5019743;28;45387;-58
2022/06/27 11:05:29;;;;;;;;;3.25;1.00;;;;;23.74;40.25;101288.81;5019986;28;45371;-57
2022/06/27 11:07:55;;;;;;;;;1.25;1.25;;;;;23.83;39.78;101277.50;5019738;28;45214;-57
2022/06/27 11:10:20;;;;;;;;;0.75;0.75;;;;;23.93;40.13;101267.09;5018635;28;45249;-57
2022/06/27 11:12:46;;;;;;;;;2.75;1.00;;;;;24.13;40.24;101263.19;5023726;28;45348;-58
2022/06/27 11:15:12;;;;;;;;;2.75;1.50;;;;;24.43;40.87;101254.97;5019629;28;45445;-57
2022/06/27 11:17:45;;;;;;;;;1.00;1.00;;;;;25.00;41.84;101269.22;5019425;28;46362;-57
2022/06/27 11:20:18;;;;;;;;;2.00;2.00;;;;;25.66;42.09;101263.88;5019317;28;45303;-57
2022/06/27 11:22:51;;;;;;;;;1.00;1.00;;;;;26.46;42.26;101259.16;5019803;28;45287;-57
2022/06/27 11:25:20;;;;;;;;;2.75;1.00;;;;;27.09;42.25;101268.84;5018959;28;45451;-58
2022/06/27 11:27:48;;;;;;;;;1.75;1.00;;;;;27.56;41.85;101271.56;5001712;28;48472;-57